Time;durP1;ratioP1;P1;durP2;ratioP2;P2;SDS_P1;SDS_P2;PMS_P1;PMS_P2;Temp;Humidity;BMP_temperature;BMP_pressure;BME280_temperature;BME280_humidity;BME280_pressure;Samples;Min_cycle;Max_cycle;Signal;HPM_P1;HPM_P2
2023/07/16 08:25:03;;;;;;;;;;;;;;;8.15;100.00;99742.97;5285565;23;20008;-89
2023/07/16 08:27:29;;;;;;;;;;;;;;;8.20;100.00;99734.91;5007839;28;19964;-85
2023/07/16 08:29:54;;;;;;;;;;;;;;;8.17;100.00;99735.84;5005561;28;20287;-84
2023/07/16 08:32:19;;;;;;;;;;;;;;;8.12;100.00;99732.50;5023829;28;19971;-86
2023/07/16 08:34:45;;;;;;;;;;;;;;;8.04;100.00;99742.47;5005758;28;19921;-88
2023/07/16 08:37:10;;;;;;;;;;;;;;;8.09;100.00;99742.28;5023206;28;19917;-90
2023/07/16 08:39:35;;;;;;;;;;;;;;;8.12;100.00;99742.19;5004293;28;19976;-86
2023/07/16 08:42:01;;;;;;;;;;;;;;;8.06;100.00;99742.38;5006005;28;20363;-86
2023/07/16 08:44:27;;;;;;;;;;;;;;;8.04;100.00;99742.47;5022547;28;20013;-86
2023/07/16 08:46:52;;;;;;;;;;;;;;;8.04;100.00;99738.94;5003820;28;19989;-90
2023/07/16 08:49:18;;;;;;;;;;;;;;;8.03;100.00;99748.66;5005044;28;19917;-92
2023/07/16 08:51:45;;;;;;;;;;;;;;;8.06;100.00;99743.25;4990440;28;20399;-88
2023/07/16 08:54:11;;;;;;;;;;;;;;;8.14;100.00;99745.66;5020917;28;19917;-89
2023/07/16 08:56:36;;;;;;;;;;;;;;;8.14;100.00;99740.38;5004801;28;19924;-90
2023/07/16 08:59:02;;;;;;;;;;;;;;;8.21;100.00;99746.31;5021682;28;20269;-86
2023/07/16 09:01:28;;;;;;;;;;;;;;;8.14;100.00;99751.78;5021771;28;19954;-86
2023/07/16 09:03:53;;;;;;;;;;;;;;;8.11;100.00;99754.53;5011711;28;19922;-85
2023/07/16 09:06:18;;;;;;;;;;;;;;;8.23;100.00;99750.59;5022082;28;20279;-87
2023/07/16 09:08:44;;;;;;;;;;;;;;;8.25;100.00;99751.44;5002129;28;19918;-87
2023/07/16 09:11:16;;;;;;;;;;;;;;;8.23;100.00;99749.75;5004064;28;20326;-86
2023/07/16 09:13:44;;;;;;;;;;;;;;;8.18;100.00;99763.09;4994770;28;19922;-85
2023/07/16 09:16:10;;;;;;;;;;;;;;;8.22;100.00;99753.28;5003840;28;19944;-92
2023/07/16 09:18:35;;;;;;;;;;;;;;;8.30;100.00;99756.56;5021968;28;20478;-85
2023/07/16 09:21:05;;;;;;;;;;;;;;;8.27;100.00;99756.66;5021492;28;20269;-90
2023/07/16 09:23:37;;;;;;;;;;;;;;;8.27;100.00;99746.09;5012943;28;19921;-89
2023/07/16 09:26:03;;;;;;;;;;;;;;;8.31;100.00;99763.53;5012024;28;19932;-87
2023/07/16 09:28:29;;;;;;;;;;;;;;;8.37;100.00;99764.19;4993824;28;20391;-91
2023/07/16 09:30:55;;;;;;;;;;;;;;;8.35;100.00;99762.53;5022207;28;19972;-89
2023/07/16 09:33:21;;;;;;;;;;;;;;;8.39;100.00;99755.38;5012083;28;20016;-86
2023/07/16 09:35:50;;;;;;;;;;;;;;;8.42;100.00;99771.09;4990415;28;19992;-89
2023/07/16 09:38:15;;;;;;;;;;;;;;;8.42;100.00;99765.81;4990418;28;19924;-91
2023/07/16 09:40:44;;;;;;;;;;;;;;;8.39;100.00;99772.06;4993844;28;19917;-90
2023/07/16 09:43:09;;;;;;;;;;;;;;;8.40;100.00;99763.25;5026719;28;19983;-90
2023/07/16 09:45:35;;;;;;;;;;;;;;;8.34;100.00;99766.97;5012183;28;20323;-87
2023/07/16 09:48:01;;;;;;;;;;;;;;;8.30;100.00;99760.06;4993128;28;20365;-87
2023/07/16 12:47:47;;;;;;;;;;;;;;;8.41;100.00;99690.16;4974733;28;19929;-91
2023/07/16 12:50:12;;;;;;;;;;;;;;;8.44;100.00;99701.53;4973459;28;19922;-87
2023/07/16 12:52:38;;;;;;;;;;;;;;;8.51;100.00;99689.81;4956391;28;20373;-85
2023/07/16 12:55:03;;;;;;;;;;;;;;;8.47;100.00;99696.13;4974780;28;20020;-87
2023/07/16 12:57:28;;;;;;;;;;;;;;;8.52;100.00;99693.31;4958284;28;20000;-93
2023/07/16 12:59:54;;;;;;;;;;;;;;;8.52;100.00;99691.56;4973214;28;19922;-92
2023/07/16 13:02:19;;;;;;;;;;;;;;;8.54;100.00;99696.78;4975184;28;19922;-95
2023/07/16 13:04:45;;;;;;;;;;;;;;;8.57;100.00;99695.78;4975493;28;20353;-90
2023/07/16 13:07:11;;;;;;;;;;;;;;;8.57;100.00;99693.16;4957614;28;20293;-94
2023/07/16 13:09:36;;;;;;;;;;;;;;;8.57;100.00;99688.75;4973299;28;19922;-91
2023/07/16 13:12:02;;;;;;;;;;;;;;;8.57;100.00;99695.78;4974725;28;20004;-94
2023/07/16 13:14:28;;;;;;;;;;;;;;;8.65;100.00;99693.75;4957254;28;19922;-88
2023/07/16 13:16:53;;;;;;;;;;;;;;;8.61;100.00;99694.78;4975124;28;19922;-89
2023/07/16 13:19:29;;;;;;;;;;;;;;;8.04;100.00;99694.97;4957292;28;20009;-92
2023/07/16 13:21:54;;;;;;;;;;;;;;;7.40;100.00;99696.16;4955810;28;19926;-93
2023/07/16 13:24:19;;;;;;;;;;;;;;;7.26;100.00;99687.81;4974335;28;19925;-88
2023/07/16 13:26:46;;;;;;;;;;;;;;;7.04;100.00;99688.44;4974328;28;19922;-90
2023/07/16 13:29:11;;;;;;;;;;;;;;;6.86;100.00;99681.06;4955819;28;19989;-92
2023/07/16 13:31:36;;;;;;;;;;;;;;;6.79;100.00;99677.75;4956679;28;20362;-88
2023/07/16 13:34:01;;;;;;;;;;;;;;;6.68;100.00;99679.84;4957019;28;19930;-88
2023/07/16 13:36:27;;;;;;;;;;;;;;;6.62;100.00;99688.78;4956777;28;19918;-90
2023/07/16 13:38:52;;;;;;;;;;;;;;;6.55;100.00;99680.19;4957147;28;20013;-88
2023/07/16 13:41:17;;;;;;;;;;;;;;;6.48;100.00;99677.78;4974238;28;19914;-90
2023/07/16 13:43:43;;;;;;;;;;;;;;;6.47;100.00;99686.59;4957383;28;19928;-92
2023/07/16 13:46:08;;;;;;;;;;;;;;;6.47;100.00;99689.22;4981311;28;19925;-91
2023/07/16 13:48:33;;;;;;;;;;;;;;;6.35;100.00;99678.13;4993363;28;19922;-93
2023/07/16 13:50:59;;;;;;;;;;;;;;;6.35;100.00;99678.13;4994491;28;20403;-88
2023/07/16 13:53:24;;;;;;;;;;;;;;;6.35;100.00;99666.72;4976306;28;19925;-90
2023/07/16 13:55:50;;;;;;;;;;;;;;;6.35;100.00;99678.13;4976298;28;19954;-89
2023/07/16 13:58:15;;;;;;;;;;;;;;;6.31;100.00;99679.09;4974129;28;20373;-90
2023/07/16 14:00:40;;;;;;;;;;;;;;;6.30;100.00;99672.13;4975101;28;19913;-93
2023/07/16 14:03:06;;;;;;;;;;;;;;;6.22;100.00;99674.06;4992665;28;19929;-89
2023/07/16 14:05:34;;;;;;;;;;;;;;;6.31;100.00;99671.19;4975180;28;19918;-90
2023/07/16 14:07:59;;;;;;;;;;;;;;;6.24;100.00;99690.72;4974801;28;19921;-89
2023/07/16 14:10:25;;;;;;;;;;;;;;;6.19;100.00;99679.44;4976454;28;20433;-90
2023/07/16 14:12:50;;;;;;;;;;;;;;;6.16;100.00;99676.91;4992631;28;19922;-92
2023/07/16 14:15:15;;;;;;;;;;;;;;;6.05;100.00;99677.16;4975065;28;20398;-91
2023/07/16 14:17:40;;;;;;;;;;;;;;;6.09;100.00;99681.44;4977309;28;19933;-91
2023/07/16 14:20:06;;;;;;;;;;;;;;;6.07;100.00;99682.38;4975970;28;19940;-93
2023/07/16 14:22:31;;;;;;;;;;;;;;;6.03;100.00;99679.00;4975908;28;19926;-87
2023/07/16 14:24:57;;;;;;;;;;;;;;;6.04;100.00;99671.94;4977422;28;20008;-87
2023/07/16 14:27:22;;;;;;;;;;;;;;;5.98;100.00;99679.09;4995782;28;19918;-95
2023/07/16 14:29:48;;;;;;;;;;;;;;;5.93;100.00;99680.94;4993265;28;20033;-91
2023/07/16 14:32:13;;;;;;;;;;;;;;;5.95;100.00;99684.41;4993195;28;19928;-89
2023/07/16 14:34:41;;;;;;;;;;;;;;;5.97;100.00;99681.78;4976585;28;19925;-88
2023/07/16 14:37:06;;;;;;;;;;;;;;;5.89;100.00;99681.94;4978509;28;20332;-92
2023/07/16 14:39:32;;;;;;;;;;;;;;;5.91;100.00;99685.38;4995005;28;19924;-92
2023/07/16 14:41:57;;;;;;;;;;;;;;;5.87;100.00;99680.22;4976586;28;20280;-86
2023/07/16 14:44:22;;;;;;;;;;;;;;;5.79;100.00;99672.53;4972461;28;20024;-89
2023/07/16 14:46:48;;;;;;;;;;;;;;;5.77;100.00;99669.94;4993771;28;20005;-91
2023/07/16 14:49:13;;;;;;;;;;;;;;;5.73;100.00;99668.31;4993891;28;19929;-90
2023/07/16 14:51:39;;;;;;;;;;;;;;;5.74;100.00;99672.63;4978368;28;20012;-85
2023/07/16 14:54:05;;;;;;;;;;;;;;;5.69;100.00;99671.03;4979479;28;19929;-87
2023/07/16 14:56:30;;;;;;;;;;;;;;;5.72;100.00;99666.56;4975272;28;19928;-91
2023/07/16 14:58:55;;;;;;;;;;;;;;;5.73;100.00;99664.81;4996786;28;19922;-92
2023/07/16 15:01:21;;;;;;;;;;;;;;;5.68;100.00;99666.66;4979657;28;19921;-92
2023/07/16 15:03:46;;;;;;;;;;;;;;;5.88;100.00;99666.19;4995142;28;19969;-89
2023/07/16 15:06:11;;;;;;;;;;;;;;;5.68;100.00;99656.16;4978094;28;20388;-88
2023/07/16 15:08:37;;;;;;;;;;;;;;;5.60;100.00;99661.59;4979048;28;20020;-90
2023/07/16 15:11:02;;;;;;;;;;;;;;;5.61;100.00;99663.34;4989706;28;19961;-92
2023/07/16 15:13:28;;;;;;;;;;;;;;;5.58;100.00;99664.25;4976932;28;19926;-87
2023/07/16 15:15:57;;;;;;;;;;;;;;;5.55;100.00;99664.38;4994190;28;19933;-89
2023/07/16 15:18:26;;;;;;;;;;;;;;;5.57;100.00;99652.03;4994724;28;20016;-92
2023/07/16 15:20:59;;;;;;;;;;;;;;;5.55;100.00;99643.34;4979540;28;19917;-92
2023/07/16 15:23:27;;;;;;;;;;;;;;;5.52;100.00;99643.41;4977346;28;19973;-90
2023/07/16 15:25:53;;;;;;;;;;;;;;;5.51;100.00;99641.69;4995326;28;20000;-94
2023/07/16 15:28:19;;;;;;;;;;;;;;;5.54;100.00;99631.09;4978083;28;20004;-90
2023/07/16 15:30:44;;;;;;;;;;;;;;;5.45;100.00;99631.31;4979826;28;19965;-87
2023/07/16 15:33:09;;;;;;;;;;;;;;;5.42;100.00;99626.13;4987052;28;19918;-91
2023/07/16 15:35:36;;;;;;;;;;;;;;;5.44;100.00;99624.31;4978226;28;19928;-92
2023/07/16 15:38:02;;;;;;;;;;;;;;;5.47;100.00;99621.63;4996898;28;19917;-89
2023/07/16 15:40:29;;;;;;;;;;;;;;;5.45;100.00;99624.28;4979684;28;19969;-91
2023/07/16 15:42:54;;;;;;;;;;;;;;;5.43;100.00;99628.72;4979217;28;19973;-88
2023/07/16 15:45:19;;;;;;;;;;;;;;;5.49;100.00;99630.34;4995114;28;19914;-91
2023/07/16 15:47:45;;;;;;;;;;;;;;;5.44;100.00;99624.31;4996489;28;19937;-92
2023/07/16 15:50:10;;;;;;;;;;;;;;;5.43;100.00;99619.97;4980915;28;20004;-92
2023/07/16 15:52:36;;;;;;;;;;;;;;;5.43;100.00;99623.47;4980788;28;19925;-90
2023/07/16 15:55:01;;;;;;;;;;;;;;;5.33;100.00;99628.97;4996378;28;19922;-93
2023/07/16 15:57:27;;;;;;;;;;;;;;;5.36;100.00;99626.25;4978928;28;19922;-90
2023/07/16 15:59:52;;;;;;;;;;;;;;;5.36;100.00;99615.75;4997523;28;19956;-92
2023/07/16 16:02:17;;;;;;;;;;;;;;;5.41;100.00;99625.28;4994612;28;19917;-93
2023/07/16 16:04:45;;;;;;;;;;;;;;;5.37;100.00;99620.13;4978864;28;19925;-87
2023/07/16 16:07:10;;;;;;;;;;;;;;;5.34;100.00;99622.81;4997392;28;19918;-90
2023/07/16 16:09:36;;;;;;;;;;;;;;;5.56;100.00;99617.91;4996640;28;20337;-95
2023/07/16 16:12:03;;;;;;;;;;;;;;;6.03;100.00;99622.88;4995763;28;20009;-89
2023/07/16 16:14:28;;;;;;;;;;;;;;;6.32;100.00;99629.97;4977198;28;20016;-90
2023/07/16 16:16:54;;;;;;;;;;;;;;;6.49;100.00;99626.84;4977942;28;20416;-95
2023/07/16 16:19:23;;;;;;;;;;;;;;;6.60;100.00;99637.94;4993894;28;19922;-91
2023/07/16 16:21:48;;;;;;;;;;;;;;;6.70;100.00;99633.25;4975484;28;19980;-89
2023/07/16 16:24:13;;;;;;;;;;;;;;;6.81;100.00;99636.47;4985043;28;20388;-87
2023/07/16 16:26:38;;;;;;;;;;;;;;;6.87;100.00;99627.50;4994307;28;19925;-88
2023/07/16 16:29:04;;;;;;;;;;;;;;;6.90;100.00;99627.41;4987330;28;19928;-88
2023/07/16 16:31:29;;;;;;;;;;;;;;;6.97;100.00;99622.81;4988274;28;19918;-90
2023/07/16 16:33:54;;;;;;;;;;;;;;;7.01;100.00;99627.94;4995235;28;19941;-89
2023/07/16 16:36:19;;;;;;;;;;;;;;;7.05;100.00;99626.94;4993622;28;20481;-89
2023/07/16 16:38:45;;;;;;;;;;;;;;;7.11;100.00;99630.28;4994385;28;20391;-86
2023/07/16 16:41:11;;;;;;;;;;;;;;;7.13;100.00;99628.47;4994991;28;19957;-91
2023/07/16 16:43:37;;;;;;;;;;;;;;;7.18;100.00;99623.91;4991456;28;19929;-87
2023/07/16 16:46:02;;;;;;;;;;;;;;;7.17;100.00;99627.47;4995764;28;19922;-93
2023/07/16 16:48:29;;;;;;;;;;;;;;;7.23;100.00;99635.19;4995629;28;19957;-86
2023/07/16 16:50:55;;;;;;;;;;;;;;;7.26;100.00;99640.38;4994867;28;19927;-87
2023/07/16 16:53:20;;;;;;;;;;;;;;;7.32;100.00;99640.16;4975383;28;19933;-92
2023/07/16 16:55:46;;;;;;;;;;;;;;;7.31;100.00;99637.56;4995911;28;19922;-88
2023/07/16 16:58:11;;;;;;;;;;;;;;;7.28;100.00;99634.13;4977900;28;19918;-92
2023/07/16 17:00:36;;;;;;;;;;;;;;;7.32;100.00;99642.78;4976821;28;19921;-92
2023/07/16 17:03:01;;;;;;;;;;;;;;;7.34;100.00;99640.09;4995572;28;19965;-93
2023/07/16 17:05:27;;;;;;;;;;;;;;;7.35;100.00;99639.19;4993761;28;19921;-91
2023/07/16 17:07:52;;;;;;;;;;;;;;;7.41;100.00;99639.84;4976809;28;20424;-94
2023/07/16 17:10:17;;;;;;;;;;;;;;;7.43;100.00;99635.38;4976852;28;19922;-89
2023/07/16 17:12:43;;;;;;;;;;;;;;;7.44;100.00;99639.75;4992677;28;19921;-92
2023/07/16 17:15:09;;;;;;;;;;;;;;;7.45;100.00;99636.22;4991204;28;20365;-92
2023/07/16 17:17:34;;;;;;;;;;;;;;;7.50;100.00;99632.56;4993438;28;19965;-89
2023/07/16 17:20:00;;;;;;;;;;;;;;;7.52;100.00;99633.38;4975245;28;20313;-86
2023/07/16 17:22:26;;;;;;;;;;;;;;;7.48;100.00;99634.38;4976244;28;19922;-86
2023/07/16 17:24:51;;;;;;;;;;;;;;;7.51;100.00;99634.28;4977400;28;19925;-89
2023/07/16 17:27:17;;;;;;;;;;;;;;;7.52;100.00;99641.31;4993942;28;19918;-88
2023/07/16 17:29:46;;;;;;;;;;;;;;;7.56;100.00;99643.78;4993105;28;19918;-89
2023/07/16 17:32:11;;;;;;;;;;;;;;;7.55;100.00;99651.75;4975902;28;20033;-87
2023/07/16 17:34:39;;;;;;;;;;;;;;;7.58;100.00;99647.22;4975714;28;20277;-89
2023/07/16 17:37:04;;;;;;;;;;;;;;;7.58;100.00;99641.97;4977029;28;20328;-87
2023/07/16 17:39:30;;;;;;;;;;;;;;;7.63;100.00;99650.56;4970601;28;19914;-89
2023/07/16 17:41:55;;;;;;;;;;;;;;;9.08;100.00;99644.56;4970615;28;21039;-85
2023/07/16 17:44:20;;;;;;;;;;;;;;;9.38;100.00;99638.97;4991247;28;20015;-83
2023/07/16 17:46:46;;;;;;;;;;;;;;;8.26;100.00;99637.00;4992194;28;19930;-85
2023/07/16 17:49:11;;;;;;;;;;;;;;;8.01;100.00;99644.94;4993116;28;20367;-85
2023/07/16 17:51:36;;;;;;;;;;;;;;;7.96;100.00;99639.81;4975623;28;20333;-92
2023/07/16 17:54:02;;;;;;;;;;;;;;;7.91;100.00;99640.88;4975019;28;19929;-87
2023/07/16 17:56:27;;;;;;;;;;;;;;;7.91;100.00;99646.16;4975922;28;20365;-87
2023/07/16 17:58:52;;;;;;;;;;;;;;;7.90;100.00;99644.44;4989401;28;20326;-87
2023/07/16 18:01:18;;;;;;;;;;;;;;;7.89;100.00;99640.06;4975069;28;20407;-87
2023/07/16 18:03:43;;;;;;;;;;;;;;;7.86;100.00;99632.25;4976396;28;19966;-89
2023/07/16 18:06:08;;;;;;;;;;;;;;;7.87;100.00;99641.91;4991006;28;20034;-84
2023/07/16 18:08:34;;;;;;;;;;;;;;;7.93;100.00;99642.56;4990643;28;19934;-86
2023/07/16 18:11:00;;;;;;;;;;;;;;;7.87;100.00;99645.41;4975476;28;19922;-87
2023/07/16 18:13:26;;;;;;;;;;;;;;;7.91;100.00;99644.34;4980320;28;19921;-89
2023/07/16 18:15:51;;;;;;;;;;;;;;;7.89;100.00;99640.06;4992229;28;19929;-91
2023/07/16 18:18:17;;;;;;;;;;;;;;;7.91;100.00;99643.50;4979595;28;19953;-91
2023/07/16 18:20:42;;;;;;;;;;;;;;;7.93;100.00;99652.22;4985981;28;19953;-87
2023/07/16 18:23:07;;;;;;;;;;;;;;;7.93;100.00;99649.59;4990665;28;19917;-87
2023/07/16 18:25:32;;;;;;;;;;;;;;;7.95;100.00;99640.72;4974822;28;19925;-90
2023/07/16 18:27:58;;;;;;;;;;;;;;;7.94;100.00;99644.25;4973737;28;20339;-90
2023/07/16 18:30:23;;;;;;;;;;;;;;;7.97;100.00;99648.56;4988334;28;19922;-90
2023/07/16 18:32:48;;;;;;;;;;;;;;;7.94;100.00;99644.25;4990281;28;19922;-86
2023/07/16 18:35:14;;;;;;;;;;;;;;;7.93;100.00;99649.59;4989957;28;19957;-91
2023/07/16 18:37:39;;;;;;;;;;;;;;;7.97;100.00;99651.22;4991258;28;20373;-88
2023/07/16 18:40:05;;;;;;;;;;;;;;;7.98;100.00;99645.03;4990876;28;19925;-84
2023/07/16 18:42:31;;;;;;;;;;;;;;;8.00;100.00;99649.31;4990861;28;20016;-88
2023/07/16 18:44:58;;;;;;;;;;;;;;;7.99;100.00;99654.66;4989714;28;20334;-89
2023/07/16 18:47:24;;;;;;;;;;;;;;;8.04;100.00;99657.13;4986346;28;19933;-85
2023/07/16 18:49:51;;;;;;;;;;;;;;;8.02;100.00;99656.34;4989537;28;19925;-84
2023/07/16 18:52:17;;;;;;;;;;;;;;;8.14;100.00;99661.19;5005982;28;20360;-84
2023/07/16 18:54:42;;;;;;;;;;;;;;;8.13;100.00;99665.59;4974085;28;19925;-81
2023/07/16 18:57:07;;;;;;;;;;;;;;;8.07;100.00;99659.66;4990962;28;19968;-86
2023/07/16 18:59:34;;;;;;;;;;;;;;;8.20;100.00;99661.00;5005146;28;21802;-86
2023/07/16 19:02:00;;;;;;;;;;;;;;;8.14;100.00;99663.84;4987515;28;19953;-87
2023/07/16 19:04:25;;;;;;;;;;;;;;;8.17;100.00;99666.38;4984165;28;20448;-86
2023/07/16 19:06:50;;;;;;;;;;;;;;;8.18;100.00;99655.75;4985161;28;20284;-85
2023/07/16 19:09:17;;;;;;;;;;;;;;;8.16;100.00;99662.84;4989518;28;19932;-88
2023/07/16 19:11:43;;;;;;;;;;;;;;;8.18;100.00;99658.41;4985080;28;19925;-87
2023/07/16 19:14:08;;;;;;;;;;;;;;;8.21;100.00;99659.19;4988881;28;20435;-87
2023/07/16 19:16:33;;;;;;;;;;;;;;;8.19;100.00;99667.19;4974461;28;19925;-87
2023/07/16 19:18:59;;;;;;;;;;;;;;;8.18;100.00;99666.31;4985345;28;19973;-84
2023/07/16 19:21:25;;;;;;;;;;;;;;;8.21;100.00;99667.13;4990018;28;19918;-88
2023/07/16 19:23:50;;;;;;;;;;;;;;;8.23;100.00;99666.13;4977201;28;20509;-87
2023/07/16 19:26:15;;;;;;;;;;;;;;;8.21;100.00;99669.75;4986126;28;20013;-84
2023/07/16 19:28:40;;;;;;;;;;;;;;;8.17;100.00;99680.41;4987802;28;20415;-89
2023/07/16 19:31:06;;;;;;;;;;;;;;;8.22;100.00;99685.53;4989910;28;20270;-82
2023/07/16 19:33:31;;;;;;;;;;;;;;;8.22;100.00;99687.31;4988493;28;19944;-88
2023/07/16 19:35:57;;;;;;;;;;;;;;;8.25;100.00;99684.56;4991215;28;19925;-89
2023/07/16 19:38:22;;;;;;;;;;;;;;;8.23;100.00;99689.03;4993707;28;19921;-87
2023/07/16 19:40:48;;;;;;;;;;;;;;;8.25;100.00;99689.84;4994542;28;19929;-87
2023/07/16 19:43:14;;;;;;;;;;;;;;;8.25;100.00;99688.06;4974892;28;19928;-87
2023/07/16 19:45:39;;;;;;;;;;;;;;;8.27;100.00;99695.94;4991749;28;19922;-86
2023/07/16 19:48:07;;;;;;;;;;;;;;;8.27;100.00;99696.78;4993414;28;19965;-87
2023/07/16 19:50:32;;;;;;;;;;;;;;;8.27;100.00;99709.16;4992407;28;19934;-89
2023/07/16 19:52:58;;;;;;;;;;;;;;;8.28;100.00;99705.56;4993255;28;19935;-88
2023/07/16 19:55:23;;;;;;;;;;;;;;;8.28;100.00;99700.28;4992629;28;19973;-86
2023/07/16 19:57:48;;;;;;;;;;;;;;;8.28;100.00;99700.28;4995537;28;20365;-83
2023/07/16 20:00:15;;;;;;;;;;;;;;;8.28;100.00;99701.16;4993622;28;20380;-85
2023/07/16 20:02:41;;;;;;;;;;;;;;;8.35;100.00;99709.72;4976736;28;19922;-87
2023/07/16 20:05:09;;;;;;;;;;;;;;;8.32;100.00;99712.47;4992931;28;19930;-84
2023/07/16 20:07:37;;;;;;;;;;;;;;;8.33;100.00;99714.22;4993378;28;20009;-85
2023/07/16 20:10:04;;;;;;;;;;;;;;;8.31;100.00;99713.38;4990287;28;19922;-86
2023/07/16 20:12:29;;;;;;;;;;;;;;;8.28;100.00;99710.84;4975327;28;19944;-90
2023/07/16 20:14:55;;;;;;;;;;;;;;;8.28;100.00;99706.44;4989508;28;20368;-89
2023/07/16 20:17:20;;;;;;;;;;;;;;;8.28;100.00;99705.56;4984414;28;20435;-91
2023/07/16 20:19:45;;;;;;;;;;;;;;;8.32;100.00;99707.19;4992528;28;19930;-87
2023/07/16 20:22:10;;;;;;;;;;;;;;;8.31;100.00;99713.38;4983845;28;20004;-87
2023/07/16 20:24:35;;;;;;;;;;;;;;;8.34;100.00;99716.81;4991961;28;19961;-86
2023/07/16 20:27:01;;;;;;;;;;;;;;;8.29;100.00;99715.22;4992649;28;19976;-88
2023/07/16 20:29:26;;;;;;;;;;;;;;;8.32;100.00;99713.34;4987894;28;19965;-86
2023/07/16 20:31:51;;;;;;;;;;;;;;;8.32;100.00;99717.75;4981571;28;20033;-88
2023/07/16 20:34:17;;;;;;;;;;;;;;;8.31;100.00;99721.31;4993685;28;19922;-86
2023/07/16 20:36:42;;;;;;;;;;;;;;;8.39;100.00;99726.31;4990642;28;19976;-83
2023/07/16 20:39:08;;;;;;;;;;;;;;;8.34;100.00;99722.09;4976966;28;19968;-86
2023/07/16 20:41:33;;;;;;;;;;;;;;;8.38;100.00;99730.75;4989359;28;20266;-88
2023/07/16 20:43:58;;;;;;;;;;;;;;;8.39;100.00;99736.88;4991470;28;19925;-84
2023/07/16 20:46:24;;;;;;;;;;;;;;;8.39;100.00;99735.09;4977269;28;19929;-84
2023/07/16 20:48:50;;;;;;;;;;;;;;;8.39;100.00;99735.09;4989795;28;19926;-83
2023/07/16 20:51:15;;;;;;;;;;;;;;;8.44;100.00;99741.13;4975095;28;19930;-85
2023/07/16 20:53:41;;;;;;;;;;;;;;;8.40;100.00;99730.69;4978649;28;19922;-86
2023/07/16 20:56:06;;;;;;;;;;;;;;;8.39;100.00;99737.75;4984078;28;20296;-92
2023/07/16 20:58:31;;;;;;;;;;;;;;;8.37;100.00;99732.50;4992084;28;19924;-88
2023/07/16 21:00:56;;;;;;;;;;;;;;;8.41;100.00;99732.41;4986099;28;19918;-91
2023/07/16 21:03:22;;;;;;;;;;;;;;;8.42;100.00;99742.91;4983286;28;19921;-90
2023/07/16 21:05:47;;;;;;;;;;;;;;;8.41;100.00;99737.69;4975147;28;19980;-91
2023/07/16 21:08:13;;;;;;;;;;;;;;;8.37;100.00;99739.56;4993007;28;19922;-88
2023/07/16 21:10:38;;;;;;;;;;;;;;;8.39;100.00;99729.81;4992509;28;19948;-93
2023/07/16 21:13:04;;;;;;;;;;;;;;;8.41;100.00;99733.28;4993312;28;19922;-89
2023/07/16 21:15:32;;;;;;;;;;;;;;;8.42;100.00;99742.06;4992007;28;19930;-91
2023/07/16 21:17:58;;;;;;;;;;;;;;;8.39;100.00;99740.38;4993688;28;19921;-88
2023/07/16 21:20:25;;;;;;;;;;;;;;;8.41;100.00;99738.56;4991143;28;19940;-89
2023/07/16 21:22:50;;;;;;;;;;;;;;;8.43;100.00;99736.75;4987407;28;19930;-88
2023/07/16 21:25:15;;;;;;;;;;;;;;;8.37;100.00;99736.94;4992010;28;20389;-88
2023/07/16 21:27:48;;;;;;;;;;;;;;;8.35;100.00;99737.00;4986805;28;19921;-88
2023/07/16 21:30:13;;;;;;;;;;;;;;;8.41;100.00;99737.69;4988844;28;19926;-84
2023/07/16 21:32:38;;;;;;;;;;;;;;;8.42;100.00;99740.28;4975052;28;19918;-90
2023/07/16 21:35:04;;;;;;;;;;;;;;;8.39;100.00;99740.38;4989411;28;20425;-87
2023/07/16 21:37:30;;;;;;;;;;;;;;;8.42;100.00;99740.28;4992976;28;19917;-87
2023/07/16 21:39:55;;;;;;;;;;;;;;;8.42;100.00;99739.41;4990755;28;20009;-87
2023/07/16 21:42:20;;;;;;;;;;;;;;;8.42;100.00;99740.28;4976591;28;20369;-85
2023/07/16 21:44:46;;;;;;;;;;;;;;;8.46;100.00;99741.09;4988412;28;19922;-89
2023/07/16 21:47:11;;;;;;;;;;;;;;;8.44;100.00;99745.53;4987827;28;19926;-91
2023/07/16 21:49:36;;;;;;;;;;;;;;;8.43;100.00;99741.16;4993271;28;19926;-87
2023/07/16 21:52:03;;;;;;;;;;;;;;;8.47;100.00;99748.94;4973483;28;19921;-88
2023/07/16 21:54:32;;;;;;;;;;;;;;;8.43;100.00;99749.06;4987321;28;20289;-88
2023/07/16 21:56:57;;;;;;;;;;;;;;;8.43;100.00;99752.59;4991267;28;20345;-88
2023/07/16 21:59:23;;;;;;;;;;;;;;;8.44;100.00;99754.34;4989540;28;19918;-88
2023/07/16 22:01:48;;;;;;;;;;;;;;;8.45;100.00;99755.19;4991990;28;19925;-89
2023/07/16 22:04:13;;;;;;;;;;;;;;;8.48;100.00;99763.00;4992201;28;20392;-87
2023/07/16 22:06:39;;;;;;;;;;;;;;;8.49;100.00;99760.31;4975870;28;19998;-90
2023/07/16 22:09:05;;;;;;;;;;;;;;;8.48;100.00;99760.38;4990506;28;19973;-86
2023/07/16 22:11:31;;;;;;;;;;;;;;;8.44;100.00;99756.97;4989873;28;19922;-85
2023/07/16 22:13:56;;;;;;;;;;;;;;;8.47;100.00;99759.50;4992110;28;19928;-83
2023/07/16 22:16:22;;;;;;;;;;;;;;;8.45;100.00;99758.69;4990649;28;19992;-86
2023/07/16 22:18:47;;;;;;;;;;;;;;;8.47;100.00;99756.00;4968286;28;20000;-87
2023/07/16 22:21:13;;;;;;;;;;;;;;;8.44;100.00;99759.63;4966984;28;19933;-88
2023/07/16 22:23:38;;;;;;;;;;;;;;;8.47;100.00;99762.16;4984369;28;20391;-84
2023/07/16 22:26:06;;;;;;;;;;;;;;;8.45;100.00;99763.13;4989736;28;19926;-90
2023/07/16 22:28:31;;;;;;;;;;;;;;;8.48;100.00;99769.16;4986388;28;19926;-85
2023/07/16 22:30:57;;;;;;;;;;;;;;;8.47;100.00;99762.16;4991246;28;20377;-83
2023/07/16 22:33:22;;;;;;;;;;;;;;;8.47;100.00;99762.16;4991693;28;19977;-89
2023/07/16 22:35:47;;;;;;;;;;;;;;;8.47;100.00;99759.50;4992635;28;19926;-88
2023/07/16 22:38:12;;;;;;;;;;;;;;;8.48;100.00;99760.38;4991156;28;20009;-89
2023/07/16 22:40:38;;;;;;;;;;;;;;;8.47;100.00;99759.50;4990527;28;19933;-84
2023/07/16 22:43:03;;;;;;;;;;;;;;;8.53;100.00;99754.00;4985279;28;20262;-90
2023/07/16 22:45:30;;;;;;;;;;;;;;;8.52;100.00;99760.22;4990968;28;19929;-86
2023/07/16 22:47:55;;;;;;;;;;;;;;;8.49;100.00;99768.25;4987760;28;20666;-88
2023/07/16 22:50:20;;;;;;;;;;;;;;;8.52;100.00;99762.84;4989160;28;19985;-84
2023/07/16 22:52:46;;;;;;;;;;;;;;;8.50;100.00;99758.53;4971760;28;19937;-84
2023/07/16 22:55:11;;;;;;;;;;;;;;;8.50;100.00;99764.69;4988208;28;19929;-88
2023/07/16 22:57:36;;;;;;;;;;;;;;;8.49;100.00;99768.25;4990929;28;19937;-89
2023/07/16 23:00:05;;;;;;;;;;;;;;;8.53;100.00;99769.00;4989716;28;19929;-88
2023/07/16 23:02:30;;;;;;;;;;;;;;;8.54;100.00;99763.66;4991417;28;20087;-88
2023/07/16 23:04:55;;;;;;;;;;;;;;;8.55;100.00;99761.88;4970734;28;20066;-87
2023/07/16 23:07:20;;;;;;;;;;;;;;;8.50;100.00;99769.97;4973403;28;19969;-87
2023/07/16 23:09:46;;;;;;;;;;;;;;;8.50;100.00;99767.34;4972938;28;19948;-88
2023/07/16 23:12:11;;;;;;;;;;;;;;;8.47;100.00;99767.44;4975961;28;19921;-84
2023/07/16 23:14:40;;;;;;;;;;;;;;;8.43;100.00;99763.16;4976830;28;20017;-86
2023/07/16 23:17:05;;;;;;;;;;;;;;;8.50;100.00;99761.16;4978216;28;19918;-85
2023/07/16 23:19:30;;;;;;;;;;;;;;;8.52;100.00;99760.22;4995917;28;19929;-86
2023/07/16 23:21:55;;;;;;;;;;;;;;;8.51;100.00;99757.63;4975134;28;20282;-85
2023/07/16 23:24:21;;;;;;;;;;;;;;;8.47;100.00;99756.88;4989590;28;19922;-88
2023/07/16 23:26:46;;;;;;;;;;;;;;;8.52;100.00;99765.50;4976585;28;20008;-86
